createdAt,value
2022-12-04T00:00:03.699Z,5.70
2022-12-04T00:01:06.747Z,5.60
2022-12-04T00:02:09.953Z,5.60
2022-12-04T00:03:13.602Z,5.60
2022-12-04T00:04:16.999Z,5.50
2022-12-04T00:05:19.243Z,5.60
2022-12-04T00:06:24.025Z,5.60
2022-12-04T00:07:26.323Z,5.50
2022-12-04T00:08:29.480Z,5.60
2022-12-04T00:09:31.604Z,5.60
2022-12-04T00:10:34.786Z,5.60
2022-12-04T00:11:36.926Z,5.60
2022-12-04T00:12:40.020Z,5.60
2022-12-04T00:13:42.294Z,5.60
2022-12-04T00:15:23.301Z,5.70
2022-12-04T00:16:10.820Z,5.70
2022-12-04T00:17:12.976Z,5.60
2022-12-04T00:18:17.457Z,5.70
2022-12-04T00:19:20.711Z,5.60
2022-12-04T00:20:23.220Z,5.60
2022-12-04T00:21:27.388Z,5.60
2022-12-04T00:22:29.519Z,5.60
2022-12-04T00:23:32.606Z,5.70
2022-12-04T00:24:35.202Z,5.70
2022-12-04T00:25:41.315Z,5.70
2022-12-04T00:26:43.828Z,5.70
2022-12-04T00:27:47.005Z,5.70
2022-12-04T00:28:50.994Z,5.70
2022-12-04T00:29:54.316Z,5.60
2022-12-04T00:30:56.733Z,5.60
2022-12-04T00:31:59.906Z,5.50
2022-12-04T00:33:02.147Z,5.50
2022-12-04T00:34:08.196Z,5.60
2022-12-04T00:35:10.582Z,5.60
2022-12-04T00:36:16.553Z,5.60
2022-12-04T00:37:18.704Z,5.70
2022-12-04T00:38:21.817Z,5.70
2022-12-04T00:39:24.029Z,5.70
2022-12-04T00:40:27.136Z,5.70
2022-12-04T00:41:32.013Z,5.70
2022-12-04T00:42:35.188Z,5.60
2022-12-04T00:43:37.422Z,5.60
2022-12-04T00:44:40.638Z,5.60
2022-12-04T00:45:42.823Z,5.70
2022-12-04T00:46:45.929Z,5.70
2022-12-04T00:47:48.040Z,5.70
2022-12-04T00:48:51.538Z,5.70
2022-12-04T00:49:55.266Z,5.80
2022-12-04T00:51:03.427Z,5.80
2022-12-04T00:52:05.502Z,5.90
2022-12-04T00:53:08.773Z,5.90
2022-12-04T00:54:10.909Z,5.90
2022-12-04T00:55:14.030Z,6.00
2022-12-04T00:56:19.011Z,6.00
2022-12-04T00:57:22.095Z,6.00
2022-12-04T00:58:24.634Z,6.00
2022-12-04T00:59:27.784Z,6.10
2022-12-04T01:00:29.921Z,6.10
2022-12-04T01:01:33.241Z,6.10
2022-12-04T01:02:35.440Z,6.10
2022-12-04T01:03:39.400Z,6.10
2022-12-04T01:04:41.532Z,6.10
2022-12-04T01:05:47.115Z,6.10
2022-12-04T01:06:49.220Z,6.10
2022-12-04T01:07:52.338Z,6.10
2022-12-04T01:08:56.091Z,6.20
2022-12-04T01:09:59.242Z,6.20
2022-12-04T01:11:06.200Z,6.20
2022-12-04T01:12:09.413Z,6.20
2022-12-04T01:13:11.568Z,6.20
2022-12-04T01:14:14.689Z,6.20
2022-12-04T01:15:17.062Z,6.20
2022-12-04T01:16:23.089Z,6.20
2022-12-04T01:17:25.575Z,6.20
2022-12-04T01:18:28.844Z,6.20
2022-12-04T01:19:30.951Z,6.20
2022-12-04T01:20:34.370Z,6.20
2022-12-04T01:21:38.835Z,6.10
2022-12-04T01:22:41.943Z,6.10
2022-12-04T01:23:44.229Z,6.10
2022-12-04T01:24:47.426Z,6.20
2022-12-04T01:25:54.746Z,6.10
2022-12-04T01:26:57.858Z,6.10
2022-12-04T01:28:00.057Z,6.10
2022-12-04T01:29:03.479Z,6.00
2022-12-04T01:30:07.995Z,6.00
2022-12-04T01:31:14.622Z,6.10
2022-12-04T01:32:16.916Z,6.00
2022-12-04T01:33:20.081Z,6.00
2022-12-04T01:34:25.171Z,6.10
2022-12-04T01:35:27.270Z,6.10
2022-12-04T01:36:30.473Z,6.10
2022-12-04T01:37:34.348Z,6.10
2022-12-04T01:38:38.414Z,6.10
2022-12-04T01:39:40.523Z,6.10
2022-12-04T01:40:45.615Z,6.00
2022-12-04T01:41:47.866Z,6.00
2022-12-04T01:42:50.964Z,6.00
2022-12-04T01:44:11.241Z,5.90
2022-12-04T01:45:37.939Z,5.90
2022-12-04T01:46:42.049Z,5.90
2022-12-04T01:47:44.273Z,5.80
2022-12-04T01:48:53.402Z,5.80
2022-12-04T01:49:55.875Z,5.80
2022-12-04T01:51:06.664Z,5.80
2022-12-04T01:52:15.830Z,5.80
2022-12-04T01:53:21.728Z,5.80
2022-12-04T01:54:29.025Z,5.80
2022-12-04T01:55:33.091Z,5.80
2022-12-04T01:56:41.703Z,5.80
2022-12-04T01:57:46.086Z,5.90
2022-12-04T01:58:54.649Z,6.00
2022-12-04T02:00:01.610Z,6.00
2022-12-04T02:01:09.102Z,5.90
2022-12-04T02:02:17.404Z,5.90
2022-12-04T02:03:19.809Z,5.90
2022-12-04T02:04:23.022Z,5.90
2022-12-04T02:05:25.214Z,5.90
2022-12-04T02:06:28.335Z,5.80
2022-12-04T02:07:30.785Z,5.80
2022-12-04T02:08:37.790Z,5.80
2022-12-04T02:09:42.240Z,5.90
2022-12-04T02:10:56.690Z,5.80
2022-12-04T02:12:08.911Z,5.70
2022-12-04T02:13:21.811Z,5.60
2022-12-04T02:14:37.780Z,5.60
2022-12-04T02:15:49.844Z,5.60
2022-12-04T02:17:04.668Z,5.70
2022-12-04T02:18:18.399Z,5.60
2022-12-04T02:19:42.877Z,5.60
2022-12-04T02:20:55.829Z,5.50
2022-12-04T02:22:03.499Z,5.60
2022-12-04T02:23:42.848Z,5.50
2022-12-04T02:24:56.353Z,5.50
2022-12-04T02:26:12.554Z,5.40
2022-12-04T02:27:31.288Z,5.40
2022-12-04T02:28:46.871Z,5.40
2022-12-04T02:30:01.295Z,5.50
2022-12-04T02:31:09.935Z,5.50
2022-12-04T02:32:20.089Z,5.60
2022-12-04T02:33:28.256Z,5.70
2022-12-04T02:34:41.918Z,5.70
2022-12-04T02:35:52.978Z,5.70
2022-12-04T02:37:02.515Z,5.70
2022-12-04T02:38:13.314Z,5.70
2022-12-04T02:39:23.263Z,5.80
2022-12-04T02:40:34.909Z,5.80
2022-12-04T02:41:43.832Z,5.80
2022-12-04T02:42:54.481Z,5.80
2022-12-04T02:44:07.177Z,5.70
2022-12-04T02:45:14.935Z,5.70
2022-12-04T02:46:24.999Z,5.60
2022-12-04T02:47:29.076Z,5.70
2022-12-04T02:48:35.676Z,5.70
2022-12-04T02:49:45.334Z,5.70
2022-12-04T02:50:52.168Z,5.70
2022-12-04T02:51:58.569Z,5.70
2022-12-04T02:53:06.876Z,5.80
2022-12-04T02:54:17.898Z,5.80
2022-12-04T02:55:27.979Z,5.80
2022-12-04T02:56:37.829Z,5.80
2022-12-04T02:57:46.847Z,5.70
2022-12-04T02:58:55.540Z,5.70
2022-12-04T03:00:05.829Z,5.60
2022-12-04T03:01:23.916Z,5.70
2022-12-04T03:02:33.512Z,5.70
2022-12-04T03:03:36.837Z,5.70
2022-12-04T03:04:41.467Z,5.70
2022-12-04T03:05:55.151Z,5.70
2022-12-04T03:07:04.588Z,5.70
2022-12-04T03:08:12.217Z,5.50
2022-12-04T03:09:22.001Z,5.50
2022-12-04T03:10:29.891Z,5.50
2022-12-04T03:11:39.508Z,5.50
2022-12-04T03:12:47.910Z,5.40
2022-12-04T03:13:58.218Z,5.40
2022-12-04T03:15:07.675Z,5.40
2022-12-04T03:16:16.818Z,5.40
2022-12-04T03:17:30.171Z,5.40
2022-12-04T03:18:38.514Z,5.30
2022-12-04T03:19:48.516Z,5.20
2022-12-04T03:21:00.620Z,5.20
2022-12-04T03:22:08.280Z,5.20
2022-12-04T03:23:17.300Z,5.30
2022-12-04T03:24:27.033Z,5.30
2022-12-04T03:25:38.167Z,5.30
2022-12-04T03:26:46.622Z,5.30
2022-12-04T03:27:59.152Z,5.30
2022-12-04T03:29:09.541Z,5.40
2022-12-04T03:30:18.864Z,5.40
2022-12-04T03:31:30.529Z,5.40
2022-12-04T03:32:39.465Z,5.30
2022-12-04T03:33:47.444Z,5.30
2022-12-04T03:34:57.575Z,5.30
2022-12-04T03:36:08.126Z,5.30
2022-12-04T03:37:16.435Z,5.20
2022-12-04T03:38:26.038Z,5.20
2022-12-04T03:39:36.559Z,5.30
2022-12-04T03:40:43.727Z,5.40
2022-12-04T03:41:57.795Z,5.50
2022-12-04T03:43:07.787Z,5.60
2022-12-04T03:44:17.993Z,5.60
2022-12-04T03:45:27.572Z,5.60
2022-12-04T03:46:38.707Z,5.60
2022-12-04T03:47:50.363Z,5.50
2022-12-04T03:48:59.156Z,5.60
2022-12-04T03:50:09.123Z,5.60
2022-12-04T03:51:19.576Z,5.60
2022-12-04T03:52:30.880Z,5.60
2022-12-04T03:53:39.519Z,5.60
2022-12-04T03:54:50.842Z,5.70
2022-12-04T03:56:00.427Z,5.70
2022-12-04T03:57:09.104Z,5.70
2022-12-04T03:58:16.894Z,5.70
2022-12-04T03:59:27.971Z,5.70
2022-12-04T04:00:36.637Z,5.70
2022-12-04T04:01:45.874Z,5.70
2022-12-04T04:02:53.578Z,5.70
2022-12-04T04:04:01.041Z,5.70
2022-12-04T04:05:07.036Z,5.70
2022-12-04T04:06:16.559Z,5.70
2022-12-04T04:07:30.466Z,5.70
2022-12-04T04:08:44.288Z,5.80
2022-12-04T04:09:54.161Z,5.80
2022-12-04T04:11:04.434Z,5.80
2022-12-04T04:12:13.349Z,5.90
2022-12-04T04:13:40.362Z,5.90
2022-12-04T04:15:08.027Z,6.00
2022-12-04T04:16:34.966Z,6.00
2022-12-04T04:18:02.816Z,5.90
2022-12-04T04:19:23.772Z,5.90
2022-12-04T04:20:53.402Z,5.90
2022-12-04T04:22:16.729Z,5.80
2022-12-04T04:23:40.561Z,5.80
2022-12-04T04:24:47.257Z,5.70
2022-12-04T04:25:53.021Z,5.60
2022-12-04T04:26:59.051Z,5.60
2022-12-04T04:28:02.385Z,5.60
2022-12-04T04:29:04.516Z,5.60
2022-12-04T04:30:10.181Z,5.50
2022-12-04T04:31:22.672Z,5.50
2022-12-04T04:32:37.154Z,5.40
2022-12-04T04:33:50.112Z,5.50
2022-12-04T04:35:03.048Z,5.50
2022-12-04T04:36:14.963Z,5.60
2022-12-04T04:37:27.716Z,5.50
2022-12-04T04:38:40.379Z,5.50
2022-12-04T04:39:54.121Z,5.50
2022-12-04T04:41:05.317Z,5.40
2022-12-04T04:42:16.772Z,5.40
2022-12-04T04:43:26.841Z,5.40
2022-12-04T04:44:39.487Z,5.50
2022-12-04T04:45:48.911Z,5.50
2022-12-04T04:47:00.160Z,5.50
2022-12-04T04:48:10.328Z,5.50
2022-12-04T04:49:17.007Z,5.50
2022-12-04T04:50:22.775Z,5.40
2022-12-04T04:51:27.863Z,5.40
2022-12-04T04:52:33.560Z,5.40
2022-12-04T04:53:41.741Z,5.40
2022-12-04T04:54:47.552Z,5.40
2022-12-04T04:55:50.516Z,5.30
2022-12-04T04:56:53.619Z,5.30
2022-12-04T04:58:06.994Z,5.30
2022-12-04T04:59:10.621Z,5.40
2022-12-04T05:00:15.768Z,5.30
2022-12-04T05:01:22.341Z,5.30
2022-12-04T05:02:27.610Z,5.30
2022-12-04T05:03:32.123Z,5.30
2022-12-04T05:04:34.282Z,5.40
2022-12-04T05:05:37.364Z,5.40
2022-12-04T05:06:39.515Z,5.40
2022-12-04T05:07:42.651Z,5.50
2022-12-04T05:08:44.873Z,5.50
2022-12-04T05:09:48.045Z,5.40
2022-12-04T05:10:50.234Z,5.30
2022-12-04T05:11:53.377Z,5.30
2022-12-04T05:12:55.462Z,5.30
2022-12-04T05:13:58.613Z,5.30
2022-12-04T05:15:00.828Z,5.20
2022-12-04T05:16:06.116Z,5.20
2022-12-04T05:17:12.574Z,5.20
2022-12-04T05:18:18.735Z,5.20
2022-12-04T05:19:39.316Z,5.20
2022-12-04T05:20:41.448Z,5.20
2022-12-04T05:21:44.547Z,5.20
2022-12-04T05:22:47.660Z,5.20
2022-12-04T05:23:51.561Z,5.20
2022-12-04T05:24:54.793Z,5.10
2022-12-04T05:26:00.651Z,5.10
2022-12-04T05:27:03.754Z,5.10
2022-12-04T05:28:06.965Z,5.20
2022-12-04T05:29:09.159Z,5.20
2022-12-04T05:30:13.594Z,5.20
2022-12-04T05:31:15.794Z,5.20
2022-12-04T05:32:18.896Z,5.30
2022-12-04T05:33:22.486Z,5.30
2022-12-04T05:34:25.585Z,5.20
2022-12-04T05:35:27.750Z,5.20
2022-12-04T05:36:30.909Z,5.30
2022-12-04T05:37:36.927Z,5.40
2022-12-04T05:38:40.090Z,5.40
2022-12-04T05:39:42.606Z,5.40
2022-12-04T05:40:46.143Z,5.50
2022-12-04T05:41:48.278Z,5.40
2022-12-04T05:42:51.388Z,5.40
2022-12-04T05:43:53.502Z,5.50
2022-12-04T05:44:56.560Z,5.50
2022-12-04T05:46:01.225Z,5.60
2022-12-04T05:47:04.431Z,5.70
2022-12-04T05:48:06.844Z,5.70
2022-12-04T05:49:11.418Z,5.80
2022-12-04T05:50:14.557Z,5.80
2022-12-04T05:51:17.707Z,5.80
2022-12-04T05:52:19.865Z,5.80
2022-12-04T05:53:22.999Z,5.70
2022-12-04T05:54:25.774Z,5.70
2022-12-04T05:55:28.924Z,5.70
2022-12-04T05:56:31.089Z,5.70
2022-12-04T05:57:34.247Z,5.80
2022-12-04T05:58:38.021Z,5.80
2022-12-04T05:59:41.180Z,5.80
2022-12-04T06:00:43.280Z,5.90
2022-12-04T06:01:46.801Z,5.90
2022-12-04T06:02:49.041Z,5.90
2022-12-04T06:03:52.249Z,6.00
2022-12-04T06:04:55.658Z,6.00
2022-12-04T06:05:58.796Z,6.10
2022-12-04T06:07:01.870Z,6.10
2022-12-04T06:08:04.253Z,6.10
2022-12-04T06:09:09.209Z,6.10
2022-12-04T06:10:11.673Z,6.10
2022-12-04T06:11:16.757Z,6.10
2022-12-04T06:12:18.888Z,6.00
2022-12-04T06:13:21.978Z,6.00
2022-12-04T06:14:25.176Z,5.90
2022-12-04T06:15:27.325Z,6.00
2022-12-04T06:16:32.949Z,5.90
2022-12-04T06:17:35.187Z,5.90
2022-12-04T06:18:38.434Z,5.90
2022-12-04T06:19:41.505Z,5.90
2022-12-04T06:20:44.994Z,5.90
2022-12-04T06:21:50.578Z,5.90
2022-12-04T06:22:52.692Z,5.90
2022-12-04T06:23:56.743Z,5.90
2022-12-04T06:24:58.821Z,5.90
2022-12-04T06:26:07.136Z,5.90
2022-12-04T06:27:27.264Z,5.90
2022-12-04T06:28:31.006Z,5.80
2022-12-04T06:29:33.688Z,5.80
2022-12-04T06:30:37.187Z,5.80
2022-12-04T06:31:40.440Z,5.90
2022-12-04T06:32:43.645Z,5.80
2022-12-04T06:33:46.280Z,5.80
2022-12-04T06:34:53.393Z,5.90
2022-12-04T06:36:00.135Z,5.80
2022-12-04T06:37:03.330Z,5.80
2022-12-04T06:38:05.446Z,5.80
2022-12-04T06:39:08.563Z,5.80
2022-12-04T06:40:11.345Z,5.80
2022-12-04T06:41:16.726Z,5.80
2022-12-04T06:42:18.910Z,5.80
2022-12-04T06:43:22.481Z,5.90
2022-12-04T06:44:24.556Z,5.70
2022-12-04T06:45:27.636Z,5.70
2022-12-04T06:46:32.340Z,5.70
2022-12-04T06:47:36.628Z,5.80
2022-12-04T06:48:39.329Z,5.80
2022-12-04T06:49:42.664Z,5.80
2022-12-04T06:50:44.791Z,5.90
2022-12-04T06:51:49.499Z,5.90
2022-12-04T06:52:51.589Z,5.80
2022-12-04T06:53:55.517Z,5.80
2022-12-04T06:54:57.706Z,5.80
2022-12-04T06:56:02.134Z,5.80
2022-12-04T06:57:04.391Z,5.90
2022-12-04T06:58:07.575Z,5.90
2022-12-04T06:59:11.234Z,5.90
2022-12-04T07:00:15.328Z,5.90
2022-12-04T07:01:19.552Z,5.80
2022-12-04T07:02:22.972Z,5.80
2022-12-04T07:03:26.117Z,5.80
2022-12-04T07:04:29.201Z,5.80
2022-12-04T07:05:31.319Z,5.90
2022-12-04T07:06:36.843Z,5.90
2022-12-04T07:07:40.316Z,5.90
2022-12-04T07:08:44.641Z,5.90
2022-12-04T07:09:48.001Z,5.90
2022-12-04T07:10:54.375Z,5.80
2022-12-04T07:12:00.677Z,5.90
2022-12-04T07:13:02.949Z,5.90
2022-12-04T07:14:06.360Z,5.90
2022-12-04T07:15:09.677Z,5.80
2022-12-04T07:16:15.579Z,5.90
2022-12-04T07:17:17.738Z,5.90
2022-12-04T07:18:20.835Z,5.90
2022-12-04T07:19:22.968Z,6.00
2022-12-04T07:20:26.112Z,6.00
2022-12-04T07:21:31.335Z,6.00
2022-12-04T07:22:33.452Z,6.00
2022-12-04T07:23:38.285Z,6.00
2022-12-04T07:24:41.528Z,6.00
2022-12-04T07:25:43.654Z,6.00
2022-12-04T07:26:46.997Z,6.00
2022-12-04T07:27:49.369Z,6.10
2022-12-04T07:28:52.729Z,6.10
2022-12-04T07:29:55.093Z,6.10
2022-12-04T07:30:58.612Z,6.10
2022-12-04T07:32:00.825Z,6.10
2022-12-04T07:33:04.009Z,6.10
2022-12-04T07:34:06.401Z,6.20
2022-12-04T07:35:10.051Z,6.20
2022-12-04T07:36:15.000Z,6.20
2022-12-04T07:37:18.095Z,6.20
2022-12-04T07:38:20.259Z,6.20
2022-12-04T07:39:25.128Z,6.20
2022-12-04T07:40:27.268Z,6.20
2022-12-04T07:41:30.396Z,6.20
2022-12-04T07:42:32.478Z,6.20
2022-12-04T07:43:36.179Z,6.10
2022-12-04T07:44:39.500Z,6.10
2022-12-04T07:45:41.677Z,6.10
2022-12-04T07:46:44.824Z,6.10
2022-12-04T07:47:46.982Z,6.20
2022-12-04T07:48:50.109Z,6.10
2022-12-04T07:49:53.515Z,6.10
2022-12-04T07:51:02.968Z,6.10
2022-12-04T07:52:06.940Z,6.00
2022-12-04T07:53:09.099Z,6.10
2022-12-04T07:54:12.242Z,6.10
2022-12-04T07:55:21.589Z,6.10
2022-12-04T07:56:26.464Z,6.10
2022-12-04T07:57:29.018Z,6.20
2022-12-04T07:58:32.284Z,6.20
2022-12-04T07:59:34.478Z,6.20
2022-12-04T08:00:37.538Z,6.20
2022-12-04T08:01:40.713Z,6.10
2022-12-04T08:02:42.956Z,6.10
2022-12-04T08:03:48.951Z,6.10
2022-12-04T08:04:52.406Z,6.10
2022-12-04T08:05:54.582Z,6.10
2022-12-04T08:06:57.693Z,6.10
2022-12-04T08:07:59.835Z,6.10
2022-12-04T08:09:09.215Z,6.10
2022-12-04T08:10:13.199Z,6.10
2022-12-04T08:11:19.000Z,6.10
2022-12-04T08:12:22.081Z,6.20
2022-12-04T08:13:24.536Z,6.20
2022-12-04T08:14:27.739Z,6.20
2022-12-04T08:15:29.859Z,6.30
2022-12-04T08:16:34.466Z,6.30
2022-12-04T08:17:36.701Z,6.30
2022-12-04T08:18:39.987Z,6.30
2022-12-04T08:19:42.189Z,6.30
2022-12-04T08:20:45.491Z,6.30
2022-12-04T08:21:47.654Z,6.30
2022-12-04T08:22:50.727Z,6.40
2022-12-04T08:23:56.086Z,6.40
2022-12-04T08:24:58.218Z,6.40
2022-12-04T08:26:02.467Z,6.40
2022-12-04T08:27:06.073Z,6.40
2022-12-04T08:28:09.612Z,6.40
2022-12-04T08:29:12.893Z,6.40
2022-12-04T08:30:15.332Z,6.40
2022-12-04T08:31:21.495Z,6.40
2022-12-04T08:32:24.932Z,6.40
2022-12-04T08:33:28.016Z,6.40
2022-12-04T08:34:31.152Z,6.40
2022-12-04T08:35:34.043Z,6.40
2022-12-04T08:36:37.391Z,6.30
2022-12-04T08:37:39.561Z,6.40
2022-12-04T08:38:43.110Z,6.40
2022-12-04T08:39:46.245Z,6.40
2022-12-04T08:40:48.380Z,6.40
2022-12-04T08:41:56.830Z,6.30
2022-12-04T08:43:01.894Z,6.30
2022-12-04T08:44:05.298Z,6.20
2022-12-04T08:45:08.727Z,6.30
2022-12-04T08:46:13.778Z,6.30
2022-12-04T08:47:16.967Z,6.30
2022-12-04T08:48:19.079Z,6.20
2022-12-04T08:49:22.507Z,6.30
2022-12-04T08:50:24.579Z,6.30
2022-12-04T08:51:30.083Z,6.20
2022-12-04T08:52:33.240Z,6.20
2022-12-04T08:53:36.539Z,6.20
2022-12-04T08:54:39.690Z,6.30
2022-12-04T08:55:42.776Z,6.20
2022-12-04T08:56:44.919Z,6.20
2022-12-04T08:57:48.065Z,6.20
2022-12-04T08:58:51.618Z,6.20
2022-12-04T08:59:55.070Z,6.20
2022-12-04T09:01:03.174Z,6.20
2022-12-04T09:02:06.391Z,6.20
2022-12-04T09:03:11.804Z,6.20
2022-12-04T09:04:15.078Z,6.30
2022-12-04T09:05:17.453Z,6.20
2022-12-04T09:06:21.534Z,6.20
2022-12-04T09:07:23.656Z,6.30
2022-12-04T09:08:26.920Z,6.30
2022-12-04T09:09:30.167Z,6.20
2022-12-04T09:10:34.518Z,6.30
2022-12-04T09:11:37.613Z,6.20
2022-12-04T09:12:40.743Z,6.30
2022-12-04T09:13:44.365Z,6.30
2022-12-04T09:14:48.997Z,6.20
2022-12-04T09:15:51.196Z,6.30
2022-12-04T09:16:54.528Z,6.30
2022-12-04T09:17:56.637Z,6.30
2022-12-04T09:19:00.013Z,6.30
2022-12-04T09:20:02.758Z,6.30
2022-12-04T09:21:08.962Z,6.30
2022-12-04T09:22:12.079Z,6.20
2022-12-04T09:23:14.269Z,6.20
2022-12-04T09:24:17.430Z,6.20
2022-12-04T09:25:19.511Z,6.20
2022-12-04T09:26:25.307Z,6.10
2022-12-04T09:27:28.725Z,6.10
2022-12-04T09:28:30.884Z,6.10
2022-12-04T09:29:34.189Z,6.10
2022-12-04T09:30:38.740Z,6.20
2022-12-04T09:31:42.048Z,6.10
2022-12-04T09:32:44.331Z,6.20
2022-12-04T09:33:47.683Z,6.20
2022-12-04T09:34:52.837Z,6.20
2022-12-04T09:35:55.568Z,6.30
2022-12-04T09:36:58.688Z,6.30
2022-12-04T09:38:02.259Z,6.30
2022-12-04T09:39:31.487Z,6.30
2022-12-04T09:41:19.724Z,6.40
2022-12-04T09:42:36.786Z,6.30
2022-12-04T09:44:19.418Z,6.30
2022-12-04T09:45:25.965Z,6.40
2022-12-04T09:46:37.655Z,6.50
2022-12-04T09:47:45.417Z,6.60
2022-12-04T09:48:48.924Z,6.70
2022-12-04T09:49:58.145Z,6.70
2022-12-04T09:51:04.895Z,6.70
2022-12-04T09:52:22.518Z,6.70
2022-12-04T09:53:30.115Z,6.80
2022-12-04T09:54:41.374Z,6.70
2022-12-04T09:55:51.105Z,6.80
2022-12-04T10:01:35.458Z,6.90
2022-12-04T10:02:54.154Z,6.80
2022-12-04T10:04:02.646Z,6.80
2022-12-04T10:10:37.313Z,6.70
2022-12-04T10:11:54.369Z,6.70
2022-12-04T10:13:17.003Z,6.70
2022-12-04T10:14:54.078Z,6.80
2022-12-04T10:16:23.273Z,6.90
2022-12-04T10:18:10.889Z,6.80
2022-12-04T10:19:36.631Z,6.80
2022-12-04T10:21:20.424Z,6.80
2022-12-04T10:22:31.074Z,6.80
2022-12-04T10:23:47.953Z,6.70
2022-12-04T10:24:57.243Z,6.60
2022-12-04T10:26:13.422Z,6.60
2022-12-04T10:27:32.256Z,6.70
2022-12-04T10:29:08.271Z,6.70
2022-12-04T10:30:22.378Z,6.70
2022-12-04T10:31:37.682Z,6.60
2022-12-04T10:33:16.588Z,6.70
2022-12-04T10:34:30.718Z,6.60
2022-12-04T10:35:37.915Z,6.60
2022-12-04T10:37:03.303Z,6.50
2022-12-04T10:38:15.522Z,6.40
2022-12-04T10:39:25.784Z,6.40
2022-12-04T10:40:38.976Z,6.40
2022-12-04T10:42:10.839Z,6.40
2022-12-04T10:43:20.919Z,6.40
2022-12-04T10:44:42.589Z,6.40
2022-12-04T10:45:50.448Z,6.30
2022-12-04T10:46:57.618Z,6.30
2022-12-04T10:48:01.476Z,6.20
2022-12-04T10:49:13.452Z,6.30
2022-12-04T10:50:19.502Z,6.20
2022-12-04T10:51:22.936Z,6.20
2022-12-04T10:52:26.372Z,6.20
2022-12-04T10:53:31.830Z,6.20
2022-12-04T10:54:39.728Z,6.30
2022-12-04T10:55:41.891Z,6.10
2022-12-04T10:56:53.619Z,6.20
2022-12-04T10:58:17.574Z,6.10
2022-12-04T10:59:21.017Z,6.20
2022-12-04T11:00:30.643Z,6.10
2022-12-04T11:04:05.546Z,6.20
2022-12-04T11:07:24.396Z,6.30
2022-12-04T11:08:43.706Z,6.30
2022-12-04T11:12:30.004Z,6.30
2022-12-04T11:13:32.335Z,6.40
2022-12-04T11:24:45.738Z,6.40
2022-12-04T11:25:51.790Z,6.50
2022-12-04T11:26:56.183Z,6.60
2022-12-04T11:28:02.646Z,6.60
2022-12-04T11:29:07.591Z,6.60
2022-12-04T11:30:16.001Z,6.60
2022-12-04T11:31:22.752Z,6.60
2022-12-04T11:32:29.230Z,6.60
2022-12-04T11:33:39.256Z,6.60
2022-12-04T11:34:42.224Z,6.60
2022-12-04T11:35:55.117Z,6.60
2022-12-04T11:36:58.236Z,6.60
2022-12-04T11:38:26.194Z,6.60
2022-12-04T11:39:33.802Z,6.60
2022-12-04T11:40:37.771Z,6.60
2022-12-04T11:44:27.832Z,6.60
2022-12-04T11:47:38.765Z,6.70
2022-12-04T11:48:49.679Z,6.80
2022-12-04T11:50:20.758Z,6.80
2022-12-04T11:51:48.771Z,6.80
2022-12-04T11:55:40.022Z,6.80
2022-12-04T11:57:03.297Z,6.60
2022-12-04T11:58:50.061Z,6.60
2022-12-04T12:00:42.030Z,6.60
2022-12-04T12:03:11.854Z,6.60
2022-12-04T12:07:43.482Z,6.70
2022-12-04T12:09:38.171Z,6.70
2022-12-04T12:11:13.674Z,6.60
2022-12-04T12:12:44.168Z,6.50
2022-12-04T12:14:12.797Z,6.50
2022-12-04T12:15:42.660Z,6.40
2022-12-04T12:17:00.256Z,6.40
2022-12-04T12:18:24.876Z,6.40
2022-12-04T12:19:45.060Z,6.30
2022-12-04T12:21:01.901Z,6.40
2022-12-04T12:22:16.935Z,6.30
2022-12-04T12:23:43.431Z,6.40
2022-12-04T12:25:00.124Z,6.30
2022-12-04T12:26:11.108Z,6.20
2022-12-04T12:27:40.446Z,6.30
2022-12-04T12:29:11.157Z,6.20
2022-12-04T12:30:20.077Z,6.30
2022-12-04T12:31:42.029Z,6.30
2022-12-04T12:33:04.917Z,6.20
2022-12-04T12:34:14.698Z,6.20
2022-12-04T12:35:26.452Z,6.30
2022-12-04T12:36:41.277Z,6.20
2022-12-04T12:37:53.470Z,6.30
2022-12-04T12:39:00.900Z,6.30
2022-12-04T12:40:11.695Z,6.20
2022-12-04T12:41:20.520Z,6.30
2022-12-04T12:42:34.616Z,6.30
2022-12-04T12:43:40.691Z,6.30
2022-12-04T12:44:52.288Z,6.20
2022-12-04T12:46:01.644Z,6.30
2022-12-04T12:47:12.936Z,6.40
2022-12-04T12:48:29.651Z,6.30
2022-12-04T12:49:42.692Z,6.30
2022-12-04T12:51:08.871Z,6.40
2022-12-04T12:52:25.838Z,6.40
2022-12-04T12:53:38.178Z,6.40
2022-12-04T12:54:49.166Z,6.50
2022-12-04T12:55:57.975Z,6.50
2022-12-04T12:57:13.747Z,6.50
2022-12-04T12:58:25.128Z,6.50
2022-12-04T12:59:29.820Z,6.50
2022-12-04T13:00:43.720Z,6.50
2022-12-04T13:01:59.953Z,6.60
2022-12-04T13:03:13.280Z,6.50
2022-12-04T13:04:25.327Z,6.50
2022-12-04T13:05:34.861Z,6.40
2022-12-04T13:06:42.873Z,6.50
2022-12-04T13:07:55.366Z,6.40
2022-12-04T13:09:07.971Z,6.40
2022-12-04T13:10:19.194Z,6.40
2022-12-04T13:11:25.410Z,6.50
2022-12-04T13:12:28.417Z,6.50
2022-12-04T13:13:36.396Z,6.40
2022-12-04T13:14:38.530Z,6.50
2022-12-04T13:15:48.833Z,6.40
2022-12-04T13:16:58.474Z,6.40
2022-12-04T13:18:03.386Z,6.30
2022-12-04T13:19:17.529Z,6.30
2022-12-04T13:20:29.204Z,6.40
2022-12-04T13:21:36.049Z,6.40
2022-12-04T13:22:52.823Z,6.40
2022-12-04T13:24:20.235Z,6.20
2022-12-04T13:25:43.271Z,6.20
2022-12-04T13:26:57.760Z,6.20
2022-12-04T13:28:18.305Z,6.20
2022-12-04T13:29:41.269Z,6.20
2022-12-04T13:30:51.507Z,6.30
2022-12-04T13:32:09.233Z,6.30
2022-12-04T13:33:33.974Z,6.30
2022-12-04T13:34:57.766Z,6.40
2022-12-04T13:36:41.555Z,6.40
2022-12-04T13:38:15.251Z,6.50
2022-12-04T13:39:49.904Z,6.50
2022-12-04T13:40:56.752Z,6.60
2022-12-04T13:42:01.952Z,6.50
2022-12-04T13:43:26.633Z,6.50
2022-12-04T13:44:32.116Z,6.50
2022-12-04T13:45:34.378Z,6.40
2022-12-04T13:46:41.355Z,6.50
2022-12-04T13:47:43.477Z,6.50
2022-12-04T13:48:46.610Z,6.50
2022-12-04T13:49:48.835Z,6.60
2022-12-04T13:51:03.979Z,6.70
2022-12-04T13:52:24.841Z,6.70
2022-12-04T13:53:37.339Z,6.60
2022-12-04T13:54:40.671Z,6.70
2022-12-04T13:55:42.904Z,6.70
2022-12-04T13:56:47.838Z,6.70
2022-12-04T13:57:53.845Z,6.70
2022-12-04T13:59:02.128Z,6.70
2022-12-04T14:00:25.452Z,6.70
2022-12-04T14:01:37.343Z,6.60
2022-12-04T14:02:52.366Z,6.70
2022-12-04T14:03:57.414Z,6.70
2022-12-04T14:05:03.562Z,6.70
2022-12-04T14:06:24.295Z,6.60
2022-12-04T14:07:33.209Z,6.70
2022-12-04T14:08:41.147Z,6.70
2022-12-04T14:09:50.516Z,6.70
2022-12-04T14:11:03.748Z,6.80
2022-12-04T14:12:12.818Z,6.80
2022-12-04T14:13:24.469Z,6.80
2022-12-04T14:14:34.084Z,6.70
2022-12-04T14:15:39.681Z,6.70
2022-12-04T14:16:44.196Z,6.60
2022-12-04T14:18:00.902Z,6.60
2022-12-04T14:19:06.344Z,6.60
2022-12-04T14:20:25.776Z,6.50
2022-12-04T14:21:40.286Z,6.50
2022-12-04T14:22:45.659Z,6.50
2022-12-04T14:23:50.261Z,6.50
2022-12-04T14:24:52.652Z,6.50
2022-12-04T14:25:57.938Z,6.40
2022-12-04T14:27:15.620Z,6.40
2022-12-04T14:28:28.202Z,6.50
2022-12-04T14:29:49.030Z,6.60
2022-12-04T14:31:11.050Z,6.80
2022-12-04T14:32:19.951Z,6.90
2022-12-04T14:33:26.647Z,7.00
2022-12-04T14:34:32.570Z,7.00
2022-12-04T14:36:00.668Z,7.00
2022-12-04T14:37:05.068Z,7.00
2022-12-04T14:38:19.536Z,7.10
2022-12-04T14:39:29.673Z,7.10
2022-12-04T14:40:43.657Z,7.00
2022-12-04T14:41:47.180Z,7.00
2022-12-04T14:42:51.244Z,6.80
2022-12-04T14:43:56.385Z,6.80
2022-12-04T14:45:01.310Z,6.80
2022-12-04T14:46:13.979Z,6.90
2022-12-04T14:47:39.797Z,6.90
2022-12-04T14:48:53.015Z,6.90
2022-12-04T14:50:14.411Z,6.80
2022-12-04T14:51:26.078Z,6.70
2022-12-04T14:52:37.595Z,6.70
2022-12-04T14:53:49.391Z,6.70
2022-12-04T14:55:06.618Z,6.60
2022-12-04T14:56:36.592Z,6.60
2022-12-04T14:57:48.404Z,6.60
2022-12-04T14:58:52.655Z,6.70
2022-12-04T14:59:57.494Z,6.70
2022-12-04T15:01:03.935Z,6.80
2022-12-04T15:02:17.506Z,6.70
2022-12-04T15:03:20.346Z,6.80
2022-12-04T15:04:27.231Z,6.80
2022-12-04T15:05:31.296Z,6.80
2022-12-04T15:06:35.467Z,6.80
2022-12-04T15:07:45.206Z,6.90
2022-12-04T15:09:14.384Z,6.90
2022-12-04T15:10:41.157Z,6.80
2022-12-04T15:12:05.419Z,6.80
2022-12-04T15:13:08.216Z,6.80
2022-12-04T15:14:14.675Z,6.90
2022-12-04T15:15:22.274Z,6.90
2022-12-04T15:16:25.044Z,7.00
2022-12-04T15:17:28.238Z,7.00
2022-12-04T15:18:34.253Z,7.00
2022-12-04T15:19:41.100Z,7.00
2022-12-04T15:20:57.231Z,7.00
2022-12-04T15:21:59.446Z,6.90
2022-12-04T15:23:04.394Z,7.00
2022-12-04T15:24:10.413Z,7.00
2022-12-04T15:25:21.073Z,7.00
2022-12-04T15:26:26.840Z,7.00
2022-12-04T15:27:32.882Z,7.00
2022-12-04T15:28:44.541Z,7.00
2022-12-04T15:29:49.171Z,7.00
2022-12-04T15:30:54.855Z,7.00
2022-12-04T15:32:03.901Z,7.00
2022-12-04T15:33:06.440Z,7.10
2022-12-04T15:34:15.417Z,7.10
2022-12-04T15:35:23.624Z,7.10
2022-12-04T15:36:40.131Z,7.10
2022-12-04T15:37:43.625Z,7.00
2022-12-04T15:38:54.954Z,7.00
2022-12-04T15:40:00.678Z,7.00
2022-12-04T15:41:02.861Z,7.00
2022-12-04T15:42:07.389Z,7.00
2022-12-04T15:43:17.773Z,6.90
2022-12-04T15:44:27.691Z,7.00
2022-12-04T15:45:34.745Z,6.90
2022-12-04T15:46:39.014Z,6.90
2022-12-04T15:47:53.554Z,6.90
2022-12-04T15:49:07.235Z,6.90